Aviation Digital Data Service (ADDS)

Output produced by METARs form (1407 UTC 19 July 2019)
found at http://aviationweather.gov/metar/data/
 
METAR text: KTEX 191355Z AUTO 00000KT 10SM CLR 15/01 A3041 RMK AO2
Conditions at: KTEX (TELLURIDE REGION, CO, US) observed 1355 UTC 19 July 2019
Temperature: 15.0°C (59°F)
Dewpoint: 1.0°C (34°F) [RH = 39%]
Pressure (altimeter): 30.41 inches Hg (1029.9 mb)
Winds: calm
Visibility: 10 or more miles (16+ km)
Ceiling: at least 12,000 feet AGL
Clouds: sky clear below 12,000 feet AGL
Weather: automated observation with no human augmentation;
there may or may not be significant weather present at this time

METAR text: KTEX 191335Z AUTO 10004KT 10SM CLR 13/01 A3040 RMK AO2
Conditions at: KTEX (TELLURIDE REGION, CO, US) observed 1335 UTC 19 July 2019
Temperature: 13.0°C (55°F)
Dewpoint: 1.0°C (34°F) [RH = 44%]
Pressure (altimeter): 30.40 inches Hg (1029.5 mb)
Winds: from the E (100 degrees) at 5 MPH (4 knots; 2.1 m/s)
Visibility: 10 or more miles (16+ km)
Ceiling: at least 12,000 feet AGL
Clouds: sky clear below 12,000 feet AGL
Weather: automated observation with no human augmentation;
there may or may not be significant weather present at this time

METAR text: KTEX 191315Z AUTO 13005KT 10SM CLR 13/00 A3040 RMK AO2
Conditions at: KTEX (TELLURIDE REGION, CO, US) observed 1315 UTC 19 July 2019
Temperature: 13.0°C (55°F)
Dewpoint: 0.0°C (32°F) [RH = 41%]
Pressure (altimeter): 30.40 inches Hg (1029.5 mb)
Winds: from the SE (130 degrees) at 6 MPH (5 knots; 2.6 m/s)
Visibility: 10 or more miles (16+ km)
Ceiling: at least 12,000 feet AGL
Clouds: sky clear below 12,000 feet AGL
Weather: automated observation with no human augmentation;
there may or may not be significant weather present at this time

Forecast for: KTEX (TELLURIDE REGION, CO, US)
Text: KTEX 191125Z 1912/2012 14005KT P6SM FEW250
Forecast period: 1200 to 1400 UTC 19 July 2019
Forecast type: FROM: standard forecast or significant change
Winds: from the SE (140 degrees) at 6 MPH (5 knots; 2.6 m/s)
Visibility: 6 or more miles 10+ km)
Ceiling: at least 12,000 feet AGL
Clouds: few clouds at 25000 feet AGL
Weather: no significant weather forecast for this period
Text: FM191400 VRB03KT P6SM SKC
Forecast period: 1400 to 1700 UTC 19 July 2019
Forecast type: FROM: standard forecast or significant change
Winds: variable direction winds at 3 MPH (3 knots; 1.5 m/s)
Visibility: 6 or more miles 10+ km)
Clouds: clear skies
Weather: no significant weather forecast for this period
Text: FM191700 26007G17KT P6SM SKC
Forecast period: 1700 UTC 19 July 2019 to 0300 UTC 20 July 2019
Forecast type: FROM: standard forecast or significant change
Winds: from the W (260 degrees) at 8 MPH (7 knots; 3.6 m/s)
gusting to 20 MPH (17 knots; 8.7 m/s)
Visibility: 6 or more miles 10+ km)
Clouds: clear skies
Weather: no significant weather forecast for this period
Text: FM200300 VRB05KT P6SM FEW250
Forecast period: 0300 to 0500 UTC 20 July 2019
Forecast type: FROM: standard forecast or significant change
Winds: variable direction winds at 6 MPH (5 knots; 2.6 m/s)
Visibility: 6 or more miles 10+ km)
Ceiling: at least 12,000 feet AGL
Clouds: few clouds at 25000 feet AGL
Weather: no significant weather forecast for this period
Text: FM200500 16005KT P6SM FEW100 FEW250
Forecast period: 0500 to 1200 UTC 20 July 2019
Forecast type: FROM: standard forecast or significant change
Winds: from the SSE (160 degrees) at 6 MPH (5 knots; 2.6 m/s)
Visibility: 6 or more miles 10+ km)
Ceiling: at least 12,000 feet AGL
Clouds: few clouds at 10000 feet AGL
few clouds at 25000 feet AGL
Weather: no significant weather forecast for this period